createdAt,value
2022-12-09T00:01:17.711Z,1.40
2022-12-09T00:11:07.997Z,1.40
2022-12-09T00:16:07.954Z,1.30
2022-12-09T00:21:23.245Z,1.30
2022-12-09T00:23:51.632Z,1.30
2022-12-09T00:26:20.590Z,1.30
2022-12-09T00:28:49.107Z,1.40
2022-12-09T00:31:23.411Z,1.40
2022-12-09T00:33:51.808Z,1.40
2022-12-09T00:36:21.794Z,1.40
2022-12-09T00:41:17.037Z,1.40
2022-12-09T00:43:44.766Z,1.40
2022-12-09T00:46:13.343Z,1.50
2022-12-09T00:51:10.731Z,1.40
2022-12-09T01:25:38.922Z,1.30
2022-12-09T01:42:51.563Z,1.20
2022-12-09T01:45:30.501Z,1.20
2022-12-09T01:48:06.154Z,1.20
2022-12-09T01:50:36.152Z,1.20
2022-12-09T02:02:56.524Z,1.30
2022-12-09T02:05:24.716Z,1.30
2022-12-09T02:13:05.143Z,1.30
2022-12-09T02:15:48.144Z,1.20
2022-12-09T02:18:24.623Z,1.20
2022-12-09T02:21:01.281Z,1.20
2022-12-09T02:23:51.013Z,1.20
2022-12-09T02:26:27.815Z,1.20
2022-12-09T02:29:25.035Z,1.20
2022-12-09T02:32:13.201Z,1.10
2022-12-09T02:34:46.231Z,1.20
2022-12-09T02:37:31.310Z,1.20
2022-12-09T02:40:05.245Z,1.10
2022-12-09T02:42:36.237Z,1.20
2022-12-09T02:45:06.989Z,1.20
2022-12-09T02:47:39.504Z,1.10
2022-12-09T02:50:11.924Z,1.10
2022-12-09T02:55:10.222Z,1.10
2022-12-09T02:57:38.630Z,1.10
2022-12-09T03:00:07.571Z,1.10
2022-12-09T03:02:44.169Z,1.10
2022-12-09T03:05:26.208Z,1.10
2022-12-09T03:10:29.508Z,1.10
2022-12-09T03:13:19.647Z,1.10
2022-12-09T03:15:52.040Z,1.10
2022-12-09T03:18:21.462Z,1.10
2022-12-09T03:20:50.370Z,1.00
2022-12-09T03:23:20.258Z,1.00
2022-12-09T03:25:51.459Z,1.00
2022-12-09T03:28:29.994Z,1.00
2022-12-09T03:31:03.223Z,0.90
2022-12-09T03:36:02.620Z,0.90
2022-12-09T03:38:35.237Z,0.90
2022-12-09T03:41:21.280Z,0.90
2022-12-09T03:43:53.648Z,0.90
2022-12-09T03:46:22.233Z,0.90
2022-12-09T03:51:25.110Z,0.90
2022-12-09T03:54:05.451Z,0.90
2022-12-09T03:56:38.726Z,0.90
2022-12-09T03:59:10.766Z,0.90
2022-12-09T04:01:39.978Z,0.90
2022-12-09T04:06:36.935Z,0.90
2022-12-09T04:09:05.084Z,0.80
2022-12-09T04:11:33.550Z,0.80
2022-12-09T04:26:21.348Z,0.70
2022-12-09T04:31:17.580Z,0.70
2022-12-09T04:36:15.924Z,0.80
2022-12-09T04:38:43.652Z,0.80
2022-12-09T04:41:11.668Z,0.80
2022-12-09T04:46:11.233Z,0.80
2022-12-09T04:51:08.673Z,0.80
2022-12-09T04:56:06.381Z,0.80
2022-12-09T05:01:06.884Z,0.80
2022-12-09T05:06:05.958Z,0.80
2022-12-09T05:16:07.791Z,0.80
2022-12-09T05:21:11.428Z,0.80
2022-12-09T05:23:38.980Z,0.80
2022-12-09T05:26:08.215Z,0.80
2022-12-09T05:31:08.024Z,0.80
2022-12-09T05:41:00.132Z,0.80
2022-12-09T05:51:00.016Z,0.70
2022-12-09T06:10:42.347Z,0.80
2022-12-09T07:04:55.593Z,1.00
2022-12-09T07:17:18.483Z,1.00
2022-12-09T07:22:14.625Z,1.00
2022-12-09T07:27:17.224Z,1.10
2022-12-09T08:09:12.636Z,1.20
2022-12-09T08:14:12.589Z,1.30
2022-12-09T08:16:42.456Z,1.20
2022-12-09T08:29:09.039Z,1.30
2022-12-09T08:39:06.074Z,1.40
2022-12-09T08:41:36.899Z,1.40
2022-12-09T08:44:19.555Z,1.50
2022-12-09T08:46:51.150Z,1.50
2022-12-09T08:49:22.111Z,1.50
2022-12-09T08:51:51.119Z,1.50
2022-12-09T08:56:51.584Z,1.60
2022-12-09T08:59:19.458Z,1.60
2022-12-09T09:04:18.180Z,1.60
2022-12-09T09:06:49.697Z,1.70
2022-12-09T09:09:18.625Z,1.70
2022-12-09T09:14:14.881Z,1.70
2022-12-09T09:16:43.418Z,1.70
2022-12-09T09:19:18.702Z,1.70
2022-12-09T09:24:16.225Z,1.80
2022-12-09T09:29:12.853Z,1.80
2022-12-09T09:41:51.989Z,1.80
2022-12-09T09:44:30.638Z,1.80
2022-12-09T09:46:58.724Z,1.90
2022-12-09T09:49:54.338Z,1.90
2022-12-09T09:52:24.673Z,1.90
2022-12-09T09:54:53.325Z,1.90
2022-12-09T09:57:38.531Z,1.90
2022-12-09T10:00:10.194Z,1.90
2022-12-09T10:05:20.987Z,2.00
2022-12-09T10:08:17.416Z,2.00
2022-12-09T10:10:51.454Z,2.20
2022-12-09T10:13:30.918Z,2.20
2022-12-09T10:16:15.514Z,2.20
2022-12-09T10:18:48.094Z,2.20
2022-12-09T10:21:20.121Z,2.30
2022-12-09T10:23:49.216Z,2.30
2022-12-09T10:26:27.435Z,2.40
2022-12-09T10:29:20.067Z,2.30
2022-12-09T10:36:45.309Z,2.40
2022-12-09T10:39:21.922Z,2.40
2022-12-09T10:42:16.105Z,2.40
2022-12-09T10:47:27.151Z,2.40
2022-12-09T10:49:55.369Z,2.40
2022-12-09T10:52:23.723Z,2.40
2022-12-09T11:00:21.869Z,2.50
2022-12-09T11:02:55.016Z,2.50
2022-12-09T11:05:29.082Z,2.50
2022-12-09T11:07:58.730Z,2.50
2022-12-09T11:10:29.468Z,2.50
2022-12-09T11:13:06.212Z,2.50
2022-12-09T11:15:43.788Z,2.50
2022-12-09T11:18:23.076Z,2.50
2022-12-09T11:21:03.053Z,2.50
2022-12-09T11:26:06.299Z,2.50
2022-12-09T11:28:36.932Z,2.60
2022-12-09T11:34:01.154Z,2.70
2022-12-09T11:36:34.288Z,2.70
2022-12-09T11:39:22.586Z,2.70
2022-12-09T11:42:19.021Z,2.80
2022-12-09T11:45:00.350Z,2.80
2022-12-09T11:48:21.249Z,2.70
2022-12-09T11:50:31.638Z,2.80
2022-12-09T11:53:25.144Z,2.80
2022-12-09T11:56:25.720Z,2.70
2022-12-09T11:59:07.136Z,2.80
2022-12-09T12:01:39.597Z,2.80
2022-12-09T12:04:10.674Z,2.80
2022-12-09T12:07:03.237Z,2.80
2022-12-09T12:09:37.917Z,2.90
2022-12-09T12:12:40.067Z,2.80
2022-12-09T12:15:24.848Z,2.80
2022-12-09T12:17:55.588Z,2.90
2022-12-09T12:20:36.968Z,2.80
2022-12-09T12:23:14.995Z,2.80
2022-12-09T12:26:10.636Z,2.80
2022-12-09T12:29:07.266Z,2.80
2022-12-09T12:32:05.766Z,2.80
2022-12-09T12:34:41.678Z,2.80
2022-12-09T12:37:29.774Z,2.90
2022-12-09T12:40:15.304Z,2.80
2022-12-09T12:43:43.568Z,2.80
2022-12-09T12:46:28.831Z,2.80
2022-12-09T12:49:05.043Z,2.80
2022-12-09T12:51:54.582Z,2.90
2022-12-09T12:54:52.154Z,2.80
2022-12-09T12:57:42.790Z,2.90
2022-12-09T13:00:13.301Z,2.80
2022-12-09T13:03:09.526Z,2.80
2022-12-09T13:05:39.632Z,2.80
2022-12-09T13:08:30.732Z,2.90
2022-12-09T13:11:02.954Z,2.80
2022-12-09T13:13:37.600Z,2.80
2022-12-09T13:16:16.160Z,2.80
2022-12-09T13:21:11.965Z,2.80
2022-12-09T13:24:09.589Z,2.80
2022-12-09T13:26:47.878Z,2.80
2022-12-09T13:29:30.586Z,2.80
2022-12-09T13:32:31.871Z,2.90
2022-12-09T13:35:37.209Z,2.90
2022-12-09T13:38:36.499Z,2.90
2022-12-09T13:41:31.023Z,2.90
2022-12-09T13:44:08.759Z,2.80
2022-12-09T13:49:24.031Z,2.70
2022-12-09T13:51:53.045Z,2.80
2022-12-09T13:54:26.080Z,2.80
2022-12-09T13:57:30.931Z,2.70
2022-12-09T14:00:03.616Z,2.80
2022-12-09T14:02:52.597Z,2.70
2022-12-09T14:05:23.227Z,2.70
2022-12-09T14:07:58.735Z,2.70
2022-12-09T14:10:48.133Z,2.70
2022-12-09T14:13:31.533Z,2.70
2022-12-09T14:16:34.350Z,2.60
2022-12-09T14:19:24.053Z,2.70
2022-12-09T14:22:19.673Z,2.60
2022-12-09T14:24:51.132Z,2.50
2022-12-09T14:27:22.103Z,2.50
2022-12-09T14:29:53.453Z,2.50
2022-12-09T14:32:33.112Z,2.50
2022-12-09T14:35:20.843Z,2.50
2022-12-09T14:38:14.963Z,2.50
2022-12-09T14:41:03.342Z,2.50
2022-12-09T14:43:52.131Z,2.40
2022-12-09T14:46:40.246Z,2.50
2022-12-09T14:49:15.924Z,2.40
2022-12-09T14:52:22.973Z,2.50
2022-12-09T14:57:32.330Z,2.50
2022-12-09T15:02:32.173Z,2.40
2022-12-09T15:05:01.358Z,2.40
2022-12-09T15:07:33.795Z,2.40
2022-12-09T15:15:26.544Z,2.40
2022-12-09T15:18:19.944Z,2.40
2022-12-09T15:21:05.340Z,2.40
2022-12-09T15:23:40.919Z,2.40
2022-12-09T15:28:37.370Z,2.40
2022-12-09T15:31:16.429Z,2.40
2022-12-09T15:33:46.958Z,2.30
2022-12-09T15:36:22.539Z,2.30
2022-12-09T15:38:55.137Z,2.30
2022-12-09T15:41:42.319Z,2.30
2022-12-09T15:44:13.562Z,2.30
2022-12-09T15:46:41.977Z,2.30
2022-12-09T15:49:12.786Z,2.40
2022-12-09T15:51:43.216Z,2.30
2022-12-09T15:54:14.932Z,2.40
2022-12-09T15:56:51.159Z,2.30
2022-12-09T15:59:31.518Z,2.30
2022-12-09T16:02:00.311Z,2.20
2022-12-09T16:04:31.750Z,2.30
2022-12-09T16:07:06.137Z,2.20
2022-12-09T16:14:41.806Z,2.20
2022-12-09T16:17:22.350Z,2.20
2022-12-09T16:25:13.697Z,2.20
2022-12-09T16:27:39.658Z,2.10
2022-12-09T16:30:22.905Z,2.10
2022-12-09T16:32:54.955Z,2.10
2022-12-09T16:35:27.172Z,2.10
2022-12-09T16:37:57.172Z,2.10
2022-12-09T16:42:53.873Z,2.10
2022-12-09T16:45:28.698Z,2.00
2022-12-09T16:47:57.193Z,2.10
2022-12-09T16:50:35.672Z,2.00
2022-12-09T16:53:05.477Z,2.10
2022-12-09T16:55:33.061Z,2.10
2022-12-09T16:58:00.455Z,2.10
2022-12-09T17:03:06.238Z,2.10
2022-12-09T17:54:47.680Z,2.00
2022-12-09T18:02:11.409Z,2.00
2022-12-09T18:39:05.851Z,2.00
2022-12-09T18:41:33.770Z,2.00
2022-12-09T18:44:04.275Z,2.00
2022-12-09T18:46:34.801Z,1.90
2022-12-09T18:49:14.058Z,1.90
2022-12-09T18:51:43.108Z,1.90
2022-12-09T18:54:14.946Z,1.90
2022-12-09T18:59:10.762Z,1.90
2022-12-09T19:01:40.979Z,1.80
2022-12-09T19:04:20.646Z,1.80
2022-12-09T19:06:49.831Z,1.90
2022-12-09T19:09:20.135Z,1.80
2022-12-09T19:11:48.661Z,1.90
2022-12-09T19:14:17.571Z,1.80
2022-12-09T19:16:45.527Z,1.90
2022-12-09T19:19:14.347Z,1.80
2022-12-09T19:24:16.248Z,1.90
2022-12-09T19:26:43.942Z,1.90
2022-12-09T19:29:12.164Z,1.90
2022-12-09T19:31:44.731Z,1.90
2022-12-09T19:34:14.754Z,1.90
2022-12-09T19:39:10.803Z,1.80
2022-12-09T19:44:06.709Z,1.80
2022-12-09T19:46:34.408Z,1.80
2022-12-09T19:53:57.783Z,1.90
2022-12-09T20:01:29.935Z,1.80
2022-12-09T20:04:19.140Z,1.80
2022-12-09T20:24:09.408Z,1.80
2022-12-09T20:26:37.576Z,1.80
2022-12-09T20:29:07.063Z,1.70
2022-12-09T20:31:36.247Z,1.70
2022-12-09T20:34:06.585Z,1.70
2022-12-09T20:36:35.756Z,1.80
2022-12-09T20:39:05.906Z,1.80
2022-12-09T20:44:00.534Z,1.80
2022-12-09T20:46:30.340Z,1.80
2022-12-09T20:48:58.398Z,1.80
2022-12-09T20:51:33.786Z,1.80
2022-12-09T20:54:01.183Z,1.80
2022-12-09T20:56:29.816Z,1.90
2022-12-09T20:58:57.786Z,1.80
2022-12-09T21:01:29.236Z,1.80
2022-12-09T21:03:57.374Z,1.80
2022-12-09T21:06:30.183Z,1.80
2022-12-09T21:11:26.169Z,1.80
2022-12-09T21:13:58.121Z,1.70
2022-12-09T21:16:27.748Z,1.80
2022-12-09T21:18:57.261Z,1.70
2022-12-09T21:21:26.597Z,1.70
2022-12-09T21:26:24.941Z,1.80
2022-12-09T21:28:52.902Z,1.80
2022-12-09T21:31:28.589Z,1.80
2022-12-09T21:33:57.411Z,1.80
2022-12-09T21:36:34.227Z,1.80
2022-12-09T21:46:29.700Z,1.70
2022-12-09T21:49:03.314Z,1.80
2022-12-09T21:51:31.824Z,1.70
2022-12-09T21:56:30.263Z,1.80
2022-12-09T21:58:58.831Z,1.80
2022-12-09T22:01:26.891Z,1.80
2022-12-09T22:11:19.180Z,1.80
2022-12-09T22:16:16.444Z,1.90
2022-12-09T22:21:24.864Z,1.80
2022-12-09T22:23:54.560Z,1.90
2022-12-09T22:31:20.506Z,3.30
2022-12-09T22:38:43.496Z,1.80
2022-12-09T22:41:13.626Z,1.80
2022-12-09T22:46:15.295Z,1.80
2022-12-09T22:51:13.152Z,1.80
2022-12-09T22:56:09.335Z,1.80
2022-12-09T23:01:12.702Z,1.80
2022-12-09T23:06:07.968Z,1.90
2022-12-09T23:11:08.005Z,1.90
2022-12-09T23:13:40.605Z,1.90
2022-12-09T23:16:11.799Z,1.90
2022-12-09T23:21:18.341Z,1.90
2022-12-09T23:26:16.189Z,1.90
2022-12-09T23:28:45.970Z,1.90
2022-12-09T23:31:15.711Z,1.90
2022-12-09T23:33:44.130Z,2.00
2022-12-09T23:36:24.443Z,2.00
2022-12-09T23:38:52.969Z,1.90
2022-12-09T23:41:21.111Z,2.00
2022-12-09T23:43:49.071Z,2.00
2022-12-09T23:46:21.754Z,1.90
2022-12-09T23:48:49.761Z,1.90
2022-12-09T23:51:19.535Z,1.90
2022-12-09T23:53:48.561Z,1.90
2022-12-09T23:56:18.483Z,1.90
2022-12-09T23:58:46.362Z,1.90
